Time;durP1;ratioP1;P1;durP2;ratioP2;P2;SDS_P1;SDS_P2;PMS_P1;PMS_P2;Temp;Humidity;BMP_temperature;BMP_pressure;BME280_temperature;BME280_humidity;BME280_pressure;Samples;Min_cycle;Max_cycle;Signal;HPM_P1;HPM_P2
2021/01/19 00:02:59;;;;;;;7.77;2.87;;;;;4.60;101230.00;;;;10420761;28;20201;-75
2021/01/19 00:08:02;;;;;;;10.37;2.90;;;;;4.60;101225.00;;;;10437281;28;20214;-75
2021/01/19 00:13:04;;;;;;;8.23;2.77;;;;;4.50;101225.00;;;;10416292;28;20211;-75
2021/01/19 00:18:05;;;;;;;9.83;3.63;;;;;4.50;101214.00;;;;10379293;28;20242;-75
2021/01/19 00:23:07;;;;;;;6.50;2.80;;;;;4.50;101205.00;;;;10379565;28;20191;-75
2021/01/19 00:28:10;;;;;;;9.90;2.77;;;;;4.40;101211.00;;;;10395912;28;20180;-76
2021/01/19 00:33:11;;;;;;;10.63;3.67;;;;;4.30;101197.00;;;;10396077;28;20281;-75
2021/01/19 00:38:13;;;;;;;14.40;3.47;;;;;4.30;101183.00;;;;10395288;28;20207;-75
2021/01/19 00:43:14;;;;;;;10.40;3.83;;;;;4.30;101193.00;;;;10363262;28;20529;-75
2021/01/19 00:48:16;;;;;;;12.87;4.17;;;;;4.30;101173.00;;;;10396148;28;20191;-75
2021/01/19 00:53:17;;;;;;;11.67;4.30;;;;;4.30;101152.00;;;;10412386;28;20195;-75
2021/01/19 00:58:19;;;;;;;14.80;4.60;;;;;4.30;101130.00;;;;10378537;28;20219;-75
2021/01/19 01:03:22;;;;;;;16.97;4.73;;;;;4.30;101120.00;;;;10378897;28;20298;-75
2021/01/19 01:08:23;;;;;;;14.87;4.37;;;;;4.30;101092.00;;;;10413440;28;20236;-75
2021/01/19 01:13:24;;;;;;;8.97;4.57;;;;;4.30;101093.00;;;;10426677;28;20198;-75
2021/01/19 01:18:26;;;;;;;10.07;4.40;;;;;4.30;101083.00;;;;10443047;28;20843;-76
2021/01/19 01:23:28;;;;;;;18.10;4.47;;;;;4.40;101080.00;;;;10426394;28;20206;-75
2021/01/19 01:28:30;;;;;;;9.83;4.60;;;;;4.50;101077.00;;;;10459870;28;20218;-75
2021/01/19 01:33:32;;;;;;;18.43;5.23;;;;;4.50;101056.00;;;;10442630;28;20198;-75
2021/01/19 01:38:33;;;;;;;14.63;5.37;;;;;4.60;101067.00;;;;10461068;28;20229;-75
2021/01/19 01:43:34;;;;;;;13.43;5.13;;;;;4.70;101055.00;;;;10458688;28;20229;-75
2021/01/19 01:48:38;;;;;;;16.60;5.57;;;;;4.80;101038.00;;;;10442111;28;20272;-76
2021/01/19 01:53:41;;;;;;;14.77;5.57;;;;;4.80;101017.00;;;;10458324;28;20194;-75
2021/01/19 01:58:42;;;;;;;9.97;5.90;;;;;4.80;101014.00;;;;10425210;28;20261;-75
2021/01/19 02:03:43;;;;;;;15.40;6.40;;;;;4.80;101004.00;;;;10458617;28;20198;-75
2021/01/19 02:09:07;;;;;;;15.63;6.23;;;;;4.80;100986.00;;;;10442013;28;20277;-75
2021/01/19 02:14:13;;;;;;;11.20;5.23;;;;;4.90;100983.00;;;;10428247;28;20285;-75
2021/01/19 02:19:33;;;;;;;10.83;5.27;;;;;5.00;100959.00;;;;10400114;28;20207;-75
2021/01/19 02:24:42;;;;;;;7.70;4.17;;;;;5.00;100954.00;;;;10383273;28;20530;-76
2021/01/19 02:30:06;;;;;;;10.77;5.20;;;;;5.00;100946.00;;;;10400002;28;20195;-75
2021/01/19 02:35:29;;;;;;;11.30;5.50;;;;;4.90;100939.00;;;;10416272;28;20195;-76
2021/01/19 02:40:31;;;;;;;13.67;5.27;;;;;4.80;100917.00;;;;10382627;28;20234;-76
2021/01/19 02:45:32;;;;;;;12.73;5.93;;;;;4.80;100901.00;;;;10399280;28;20269;-76
2021/01/19 02:50:34;;;;;;;12.63;5.10;;;;;4.80;100869.00;;;;10415971;28;20277;-76
2021/01/19 02:55:35;;;;;;;12.63;5.57;;;;;4.80;100878.00;;;;10415338;28;20594;-76
2021/01/19 03:00:50;;;;;;;11.87;4.80;;;;;4.80;100866.00;;;;10398370;28;20215;-76
2021/01/19 03:05:52;;;;;;;12.23;4.90;;;;;4.70;100860.00;;;;10381727;28;20195;-76
2021/01/19 03:10:55;;;;;;;9.93;4.80;;;;;4.70;100850.00;;;;10422235;28;20244;-76
2021/01/19 03:16:11;;;;;;;14.00;5.70;;;;;4.70;100838.00;;;;10438833;28;20202;-76
2021/01/19 03:21:13;;;;;;;13.17;5.03;;;;;4.70;100823.00;;;;10439305;28;20240;-75
2021/01/19 03:26:15;;;;;;;9.57;4.57;;;;;4.70;100818.00;;;;10456862;28;20194;-75
2021/01/19 03:31:16;;;;;;;8.53;4.50;;;;;4.70;100803.00;;;;10437483;28;20642;-75
2021/01/19 03:36:18;;;;;;;14.53;6.20;;;;;4.70;100781.00;;;;10438205;28;20190;-75
2021/01/19 03:41:19;;;;;;;9.90;4.87;;;;;4.70;100769.00;;;;10422135;28;20309;-75
2021/01/19 03:46:20;;;;;;;9.17;4.57;;;;;4.80;100768.00;;;;10413976;28;20685;-75
2021/01/19 03:51:25;;;;;;;5.90;4.00;;;;;4.80;100754.00;;;;10380377;28;20661;-75
2021/01/19 03:56:26;;;;;;;5.93;3.50;;;;;4.80;100745.00;;;;10396686;28;20195;-75
2021/01/19 04:01:27;;;;;;;10.47;4.53;;;;;4.90;100735.00;;;;10395973;28;20268;-75
2021/01/19 04:06:29;;;;;;;10.43;4.30;;;;;4.90;100721.00;;;;10380066;28;20717;-75
2021/01/19 04:11:31;;;;;;;6.30;3.43;;;;;5.00;100712.00;;;;10414193;28;20199;-75
2021/01/19 04:16:32;;;;;;;10.57;4.37;;;;;5.00;100700.00;;;;10404907;28;20191;-75
2021/01/19 04:21:34;;;;;;;10.27;4.20;;;;;5.10;100673.00;;;;10412222;28;20210;-75
2021/01/19 04:26:35;;;;;;;9.50;4.97;;;;;5.20;100654.00;;;;10379003;28;20666;-74
2021/01/19 04:31:37;;;;;;;9.13;4.30;;;;;5.20;100648.00;;;;10396564;28;20191;-75
2021/01/19 04:36:39;;;;;;;8.43;3.90;;;;;5.20;100631.00;;;;10412376;28;20232;-75
2021/01/19 04:41:42;;;;;;;11.40;5.03;;;;;5.30;100629.00;;;;10413729;28;20601;-75
2021/01/19 04:46:44;;;;;;;8.77;5.07;;;;;5.30;100608.00;;;;10428271;28;20308;-75
2021/01/19 04:51:47;;;;;;;7.67;3.83;;;;;5.30;100597.00;;;;10427982;28;20205;-75
2021/01/19 04:56:51;;;;;;;10.80;4.30;;;;;5.30;100598.00;;;;10444217;28;20195;-75
2021/01/19 05:01:52;;;;;;;10.73;4.77;;;;;5.30;100589.00;;;;10444656;28;20305;-75
2021/01/19 05:07:23;;;;;;;9.70;3.63;;;;;5.30;100570.00;;;;10444062;28;20194;-75
2021/01/19 05:12:36;;;;;;;7.77;3.60;;;;;5.30;100560.00;;;;10444825;28;20205;-75
2021/01/19 05:17:39;;;;;;;10.37;4.30;;;;;5.30;100560.00;;;;10420023;28;20241;-75
2021/01/19 05:22:41;;;;;;;10.57;4.20;;;;;5.20;100540.00;;;;10386251;28;20689;-75
2021/01/19 05:27:42;;;;;;;5.40;2.50;;;;;5.20;100539.00;;;;10386005;28;20278;-75
2021/01/19 05:32:43;;;;;;;9.13;3.83;;;;;5.30;100559.00;;;;10402088;28;20190;-75
2021/01/19 05:37:56;;;;;;;10.80;4.03;;;;;5.30;100543.00;;;;10419559;28;20191;-75
2021/01/19 05:43:09;;;;;;;6.77;2.90;;;;;5.30;100540.00;;;;10369684;28;20976;-74
2021/01/19 05:48:15;;;;;;;16.07;3.40;;;;;5.30;100536.00;;;;10418690;28;20187;-74
2021/01/19 05:53:16;;;;;;;11.20;3.97;;;;;5.30;100528.00;;;;10385823;28;20187;-74
2021/01/19 05:58:18;;;;;;;6.50;3.43;;;;;5.30;100522.00;;;;10383890;28;20206;-74
2021/01/19 06:03:19;;;;;;;9.23;3.50;;;;;5.30;100516.00;;;;10368693;28;20662;-74
2021/01/19 06:08:23;;;;;;;9.63;3.10;;;;;5.30;100497.00;;;;10417428;28;20186;-74
2021/01/19 06:13:25;;;;;;;5.87;2.60;;;;;5.30;100481.00;;;;10392347;28;20268;-73
2021/01/19 06:18:36;;;;;;;9.03;2.97;;;;;5.30;100479.00;;;;10457607;28;20246;-74
2021/01/19 06:23:46;;;;;;;8.27;2.73;;;;;5.30;100460.00;;;;10459468;28;20186;-73
2021/01/19 06:28:48;;;;;;;5.27;2.87;;;;;5.40;100464.00;;;;10440955;28;20190;-74
2021/01/19 06:33:50;;;;;;;5.23;2.20;;;;;5.40;100470.00;;;;10440836;28;20202;-74
2021/01/19 06:38:52;;;;;;;8.43;3.03;;;;;5.40;100458.00;;;;10439867;28;20261;-75
2021/01/19 06:43:59;;;;;;;7.03;2.50;;;;;5.40;100451.00;;;;10457331;28;20618;-74
2021/01/19 06:49:06;;;;;;;7.70;3.30;;;;;5.40;100431.00;;;;10423742;28;20611;-74
2021/01/19 06:54:11;;;;;;;5.87;2.83;;;;;5.40;100426.00;;;;10440282;28;20190;-74
2021/01/19 06:59:26;;;;;;;4.20;2.00;;;;;5.40;100404.00;;;;10457675;28;20206;-74
2021/01/19 07:04:37;;;;;;;4.63;2.30;;;;;5.40;100404.00;;;;10439279;28;20205;-75
2021/01/19 07:10:05;;;;;;;7.10;3.53;;;;;5.40;100392.00;;;;10421466;28;20241;-74
2021/01/19 07:15:09;;;;;;;7.63;3.27;;;;;5.50;100383.00;;;;10439641;28;20212;-74
2021/01/19 07:20:13;;;;;;;4.83;2.43;;;;;5.50;100382.00;;;;10438458;28;20238;-74
2021/01/19 07:25:15;;;;;;;8.77;2.93;;;;;5.50;100375.00;;;;10421822;28;20744;-74
2021/01/19 07:30:17;;;;;;;6.87;2.70;;;;;5.50;100366.00;;;;10454637;28;20190;-74
2021/01/19 07:35:24;;;;;;;4.67;2.50;;;;;5.60;100342.00;;;;10439161;28;20260;-74
2021/01/19 07:40:45;;;;;;;5.10;1.67;;;;;5.60;100324.00;;;;10421134;28;20309;-75
2021/01/19 07:46:05;;;;;;;3.10;1.93;;;;;5.60;100341.00;;;;10449368;28;20227;-75
2021/01/19 07:51:17;;;;;;;6.63;2.17;;;;;5.70;100347.00;;;;10364149;28;20194;-74
2021/01/19 07:56:23;;;;;;;4.47;2.00;;;;;5.70;100342.00;;;;10397331;28;20586;-74
2021/01/19 08:01:27;;;;;;;3.40;2.17;;;;;5.80;100347.00;;;;10396230;28;20210;-74
2021/01/19 08:06:30;;;;;;;7.00;3.03;;;;;5.80;100336.00;;;;10397321;28;20223;-74
2021/01/19 08:11:32;;;;;;;13.87;4.07;;;;;5.90;100340.00;;;;10381426;28;20191;-74
2021/01/19 08:16:47;;;;;;;6.30;2.10;;;;;6.00;100324.00;;;;10388843;28;20270;-74
2021/01/19 08:21:51;;;;;;;3.27;1.40;;;;;6.10;100320.00;;;;10404516;28;20211;-74
2021/01/19 08:26:55;;;;;;;4.60;1.80;;;;;6.10;100312.00;;;;10421837;28;20217;-74
2021/01/19 08:32:06;;;;;;;9.67;1.87;;;;;6.20;100314.00;;;;10404450;28;20182;-74
2021/01/19 08:37:16;;;;;;;3.57;2.13;;;;;6.20;100311.00;;;;10403842;28;20187;-74
2021/01/19 08:42:20;;;;;;;3.77;2.07;;;;;6.30;100318.00;;;;10403354;28;20211;-74
2021/01/19 08:47:22;;;;;;;2.77;1.70;;;;;6.40;100314.00;;;;10426121;28;20662;-74
2021/01/19 08:52:27;;;;;;;4.53;2.27;;;;;6.40;100317.00;;;;10421212;28;20190;-74
2021/01/19 08:57:28;;;;;;;8.17;2.63;;;;;6.50;100321.00;;;;10421050;28;20536;-74
2021/01/19 09:02:51;;;;;;;3.47;2.10;;;;;6.60;100319.00;;;;10402174;28;20309;-74
2021/01/19 09:07:53;;;;;;;1.87;1.50;;;;;6.70;100309.00;;;;10403014;28;20191;-74
2021/01/19 09:12:56;;;;;;;2.03;1.83;;;;;6.80;100308.00;;;;10388866;28;20292;-74
2021/01/19 09:17:58;;;;;;;6.00;2.00;;;;;6.90;100334.00;;;;10443420;28;20646;-74
2021/01/19 09:23:08;;;;;;;5.23;2.10;;;;;7.00;100307.00;;;;10442923;28;20198;-74
2021/01/19 09:28:11;;;;;;;7.53;2.40;;;;;7.00;100316.00;;;;10442958;28;20245;-74
2021/01/19 09:33:13;;;;;;;5.70;2.30;;;;;7.10;100319.00;;;;10457909;28;20231;-74
2021/01/19 09:38:21;;;;;;;6.57;2.40;;;;;7.30;100318.00;;;;10409566;28;20626;-74
2021/01/19 09:43:22;;;;;;;6.17;2.27;;;;;7.30;100318.00;;;;10441892;28;20308;-74
2021/01/19 09:48:25;;;;;;;2.83;1.73;;;;;7.40;100315.00;;;;10459689;28;20182;-74
2021/01/19 09:53:29;;;;;;;2.10;1.87;;;;;7.50;100316.00;;;;10441910;28;20210;-74
2021/01/19 09:58:30;;;;;;;5.77;2.50;;;;;7.70;100326.00;;;;10425218;28;20214;-74
2021/01/19 10:03:36;;;;;;;3.63;1.93;;;;;7.80;100315.00;;;;10431175;28;20214;-74
2021/01/19 10:08:38;;;;;;;2.57;2.10;;;;;8.10;100304.00;;;;10384389;28;20191;-74
2021/01/19 10:13:39;;;;;;;1.93;1.60;;;;;8.40;100299.00;;;;10409086;28;20889;-74
2021/01/19 10:18:42;;;;;;;5.30;3.83;;;;;8.50;100323.00;;;;10457879;28;20218;-74
2021/01/19 10:23:48;;;;;;;6.80;2.00;;;;;8.50;100335.00;;;;10424303;28;20198;-74
2021/01/19 10:28:55;;;;;;;1.97;1.50;;;;;8.60;100318.00;;;;10440344;28;20217;-74
2021/01/19 10:34:01;;;;;;;2.20;1.20;;;;;8.60;100313.00;;;;10407804;28;20202;-75
2021/01/19 10:39:08;;;;;;;2.17;1.40;;;;;8.80;100302.00;;;;10440075;28;20206;-74
2021/01/19 10:44:13;;;;;;;2.33;1.60;;;;;8.90;100295.00;;;;10440396;28;20554;-75
2021/01/19 10:49:15;;;;;;;2.33;1.50;;;;;9.10;100307.00;;;;10439673;28;20194;-75
2021/01/19 10:54:17;;;;;;;5.40;1.70;;;;;8.90;100296.00;;;;10456531;28;20592;-75
2021/01/19 10:59:19;;;;;;;3.07;2.57;;;;;9.10;100311.00;;;;10440104;28;20214;-75
2021/01/19 11:04:21;;;;;;;2.23;1.70;;;;;9.10;100316.00;;;;10438875;28;20272;-75
2021/01/19 11:09:22;;;;;;;3.57;2.07;;;;;9.50;100320.00;;;;10422708;28;20214;-75
2021/01/19 11:14:23;;;;;;;2.40;1.73;;;;;9.20;100310.00;;;;10455403;28;20202;-75
2021/01/19 11:19:25;;;;;;;2.07;1.80;;;;;9.30;100318.00;;;;10438103;28;20222;-75
2021/01/19 11:24:26;;;;;;;2.50;2.00;;;;;9.20;100337.00;;;;10438489;28;20592;-75
2021/01/19 11:29:28;;;;;;;6.10;2.10;;;;;9.30;100334.00;;;;10421424;28;20197;-75
2021/01/19 11:34:30;;;;;;;4.60;2.33;;;;;9.10;100341.00;;;;10438137;28;20199;-75
2021/01/19 11:39:32;;;;;;;2.43;2.10;;;;;9.10;100344.00;;;;10454211;28;20245;-75
2021/01/19 11:44:33;;;;;;;2.47;2.27;;;;;9.10;100333.00;;;;10420675;28;20571;-75
2021/01/19 11:49:34;;;;;;;3.63;2.57;;;;;9.00;100338.00;;;;10437923;28;20186;-75
2021/01/19 11:54:37;;;;;;;2.60;2.40;;;;;8.70;100341.00;;;;10437042;28;20193;-75
2021/01/19 11:59:40;;;;;;;2.70;2.50;;;;;8.80;100324.00;;;;10437039;28;20213;-75
2021/01/19 12:04:41;;;;;;;3.57;2.90;;;;;8.60;100339.00;;;;10453253;28;20197;-75
2021/01/19 12:09:45;;;;;;;4.77;3.07;;;;;8.70;100330.00;;;;10453493;28;20590;-75
2021/01/19 12:14:46;;;;;;;4.80;3.20;;;;;8.50;100326.00;;;;10418886;28;20237;-75
2021/01/19 12:19:47;;;;;;;4.33;3.60;;;;;8.70;100336.00;;;;10395618;28;20213;-75
2021/01/19 12:24:49;;;;;;;4.13;2.93;;;;;8.90;100314.00;;;;10395218;28;20286;-75
2021/01/19 12:29:50;;;;;;;5.17;3.87;;;;;9.00;100316.00;;;;10412540;28;20198;-75
2021/01/19 12:34:52;;;;;;;4.37;3.63;;;;;9.20;100312.00;;;;10412225;28;20195;-75
2021/01/19 12:39:54;;;;;;;6.00;3.40;;;;;9.00;100297.00;;;;10411579;28;20666;-75
2021/01/19 12:44:55;;;;;;;5.23;4.17;;;;;8.90;100302.00;;;;10431177;28;20222;-75
2021/01/19 12:49:56;;;;;;;5.17;4.47;;;;;8.80;100309.00;;;;10419791;28;20268;-75
2021/01/19 12:54:58;;;;;;;4.23;3.83;;;;;8.70;100304.00;;;;10454375;28;20190;-75
2021/01/19 12:59:59;;;;;;;5.20;4.70;;;;;8.70;100297.00;;;;10435873;28;20290;-75
2021/01/19 13:05:04;;;;;;;6.17;5.17;;;;;8.70;100309.00;;;;10454798;28;20733;-75
2021/01/19 13:10:07;;;;;;;5.93;5.03;;;;;8.70;100322.00;;;;10443788;28;20671;-75
2021/01/19 13:15:09;;;;;;;6.80;5.57;;;;;8.80;100313.00;;;;10443553;28;20213;-75
2021/01/19 13:20:11;;;;;;;5.90;5.30;;;;;8.70;100304.00;;;;10426583;28;20217;-75
2021/01/19 13:25:13;;;;;;;9.33;5.93;;;;;8.80;100320.00;;;;10442749;28;20198;-75
2021/01/19 13:30:15;;;;;;;9.47;6.10;;;;;9.00;100310.00;;;;10459866;28;20194;-75
2021/01/19 13:35:16;;;;;;;6.67;5.13;;;;;9.10;100300.00;;;;10393121;28;20186;-75
2021/01/19 13:40:18;;;;;;;5.73;5.13;;;;;9.00;100302.00;;;;10442658;28;20612;-75
2021/01/19 13:45:21;;;;;;;6.80;5.50;;;;;9.10;100309.00;;;;10442810;28;20214;-75
2021/01/19 13:50:23;;;;;;;6.90;6.20;;;;;9.00;100305.00;;;;10442037;28;20182;-75
2021/01/19 13:55:24;;;;;;;6.67;5.90;;;;;9.00;100310.00;;;;10425380;28;20186;-75
2021/01/19 14:00:26;;;;;;;7.10;5.27;;;;;8.90;100294.00;;;;10458939;28;20700;-75
2021/01/19 14:05:28;;;;;;;10.07;6.13;;;;;8.90;100299.00;;;;10459309;28;20189;-75
2021/01/19 14:10:29;;;;;;;8.33;5.70;;;;;8.70;100311.00;;;;10441584;28;20557;-75
2021/01/19 14:15:31;;;;;;;5.33;4.83;;;;;8.60;100312.00;;;;10440373;28;20198;-75
2021/01/19 14:20:33;;;;;;;6.30;5.03;;;;;8.50;100314.00;;;;10441383;28;20542;-75
2021/01/19 14:25:35;;;;;;;8.07;5.37;;;;;8.50;100314.00;;;;10440236;28;20196;-75
2021/01/19 14:30:39;;;;;;;6.67;5.63;;;;;8.40;100312.00;;;;10457509;28;20221;-75
2021/01/19 14:35:41;;;;;;;8.47;5.07;;;;;8.40;100303.00;;;;10423761;28;20217;-74
2021/01/19 14:40:42;;;;;;;5.00;4.50;;;;;8.40;100317.00;;;;10439923;28;20225;-74
2021/01/19 14:45:44;;;;;;;11.93;5.97;;;;;8.40;100321.00;;;;10456255;28;20206;-75
2021/01/19 14:50:47;;;;;;;10.53;5.90;;;;;8.40;100321.00;;;;10431610;28;20233;-74
2021/01/19 14:55:49;;;;;;;8.03;5.53;;;;;8.30;100326.00;;;;10398437;28;20270;-74
2021/01/19 15:00:50;;;;;;;8.07;4.97;;;;;8.30;100322.00;;;;10416366;28;20281;-74
2021/01/19 15:05:52;;;;;;;8.27;4.90;;;;;8.30;100324.00;;;;10414690;28;20183;-74
2021/01/19 15:10:53;;;;;;;8.43;5.27;;;;;8.20;100325.00;;;;10381392;28;20204;-74
2021/01/19 15:15:55;;;;;;;7.33;4.33;;;;;8.10;100321.00;;;;10408592;28;20876;-74
2021/01/19 15:20:56;;;;;;;5.13;4.43;;;;;8.00;100325.00;;;;10438110;28;20701;-74
2021/01/19 15:25:58;;;;;;;5.23;4.73;;;;;8.00;100344.00;;;;10421860;28;20312;-74
2021/01/19 15:30:59;;;;;;;7.13;4.50;;;;;7.90;100335.00;;;;10437110;28;20198;-74
2021/01/19 15:36:05;;;;;;;7.57;4.80;;;;;7.90;100335.00;;;;10422119;28;20662;-74
2021/01/19 15:41:06;;;;;;;5.97;5.37;;;;;7.80;100335.00;;;;10438272;28;20237;-74
2021/01/19 15:46:08;;;;;;;7.77;5.03;;;;;7.80;100343.00;;;;10437010;28;20712;-74
2021/01/19 15:51:09;;;;;;;5.00;3.63;;;;;7.80;100332.00;;;;10421183;28;20190;-74
2021/01/19 15:56:11;;;;;;;5.97;4.80;;;;;7.80;100336.00;;;;10421068;28;20202;-74
2021/01/19 16:01:13;;;;;;;6.67;4.50;;;;;7.80;100347.00;;;;10425264;28;20257;-74
2021/01/19 16:06:14;;;;;;;5.53;4.17;;;;;7.70;100351.00;;;;10426034;28;20194;-74
2021/01/19 16:11:16;;;;;;;7.30;5.20;;;;;7.70;100345.00;;;;10412310;28;20187;-74
2021/01/19 16:16:19;;;;;;;8.60;5.10;;;;;7.60;100355.00;;;;10420365;28;20191;-74
2021/01/19 16:21:23;;;;;;;4.73;3.63;;;;;7.60;100354.00;;;;10411422;28;20238;-74
2021/01/19 16:26:26;;;;;;;6.67;4.40;;;;;7.50;100359.00;;;;10415979;28;20225;-74
2021/01/19 16:31:41;;;;;;;7.87;4.93;;;;;7.50;100368.00;;;;10402320;28;20194;-74
2021/01/19 16:36:45;;;;;;;5.90;5.07;;;;;7.40;100356.00;;;;10426209;28;20272;-74
2021/01/19 16:41:47;;;;;;;6.70;5.60;;;;;7.40;100353.00;;;;10435914;28;20206;-74
2021/01/19 16:46:51;;;;;;;12.10;6.07;;;;;7.30;100361.00;;;;10436739;28;20211;-74
2021/01/19 16:51:53;;;;;;;13.97;8.20;;;;;7.30;100347.00;;;;10396915;28;20534;-74
2021/01/19 16:56:57;;;;;;;10.93;8.40;;;;;7.30;100332.00;;;;10427300;28;20198;-74
2021/01/19 17:01:58;;;;;;;10.87;7.43;;;;;7.30;100318.00;;;;10418669;28;20745;-74
2021/01/19 17:07:02;;;;;;;13.43;9.13;;;;;7.30;100317.00;;;;10411365;28;20201;-74
2021/01/19 17:12:03;;;;;;;16.73;10.70;;;;;7.30;100315.00;;;;10398656;28;20186;-74
2021/01/19 17:17:05;;;;;;;14.10;9.63;;;;;7.30;100321.00;;;;10442868;28;20244;-74
2021/01/19 17:22:08;;;;;;;13.33;9.80;;;;;7.30;100312.00;;;;10442407;28;20206;-74
2021/01/19 17:27:10;;;;;;;14.67;9.87;;;;;7.30;100309.00;;;;10430091;28;20337;-74
2021/01/19 17:32:12;;;;;;;19.33;11.23;;;;;7.30;100310.00;;;;10426434;28;20194;-74
2021/01/19 17:37:13;;;;;;;12.90;8.40;;;;;7.20;100304.00;;;;10443137;28;20201;-74
2021/01/19 17:42:16;;;;;;;13.90;8.53;;;;;7.20;100306.00;;;;10423001;28;20214;-74
2021/01/19 17:47:18;;;;;;;13.80;7.97;;;;;7.10;100302.00;;;;10441915;28;20194;-74
2021/01/19 17:52:20;;;;;;;9.40;6.90;;;;;7.10;100306.00;;;;10457905;28;20657;-74
2021/01/19 17:57:22;;;;;;;14.43;8.07;;;;;7.10;100304.00;;;;10420232;28;20222;-75
2021/01/19 18:02:23;;;;;;;13.03;8.23;;;;;7.10;100313.00;;;;10432540;28;20693;-75
2021/01/19 18:07:25;;;;;;;14.97;9.33;;;;;7.00;100315.00;;;;10419905;28;20265;-74
2021/01/19 18:12:27;;;;;;;25.80;11.27;;;;;7.00;100312.00;;;;10433661;28;20210;-74
2021/01/19 18:17:30;;;;;;;17.80;11.27;;;;;6.90;100320.00;;;;10453123;28;20217;-74
2021/01/19 18:22:32;;;;;;;17.27;11.27;;;;;6.90;100304.00;;;;10456718;28;20209;-74
2021/01/19 18:27:33;;;;;;;19.80;11.17;;;;;6.80;100332.00;;;;10441231;28;20217;-74
2021/01/19 18:32:34;;;;;;;17.10;10.87;;;;;6.80;100324.00;;;;10441834;28;20585;-74
2021/01/19 18:37:36;;;;;;;20.93;10.07;;;;;6.70;100298.00;;;;10403172;28;20199;-74
2021/01/19 18:42:38;;;;;;;11.73;9.43;;;;;6.70;100304.00;;;;10444334;28;20209;-74
2021/01/19 18:47:39;;;;;;;12.43;8.63;;;;;6.70;100297.00;;;;10416818;28;20546;-74
2021/01/19 18:52:41;;;;;;;12.43;7.63;;;;;6.70;100299.00;;;;10382160;28;20281;-75
2021/01/19 18:57:43;;;;;;;14.17;9.57;;;;;6.70;100301.00;;;;10427568;28;20190;-74
2021/01/19 19:02:45;;;;;;;17.87;10.37;;;;;6.60;100293.00;;;;10459195;28;20681;-74
2021/01/19 19:07:47;;;;;;;14.63;9.80;;;;;6.60;100289.00;;;;10415872;28;20193;-74
2021/01/19 19:12:52;;;;;;;16.47;10.47;;;;;6.60;100280.00;;;;10391163;28;20207;-75
2021/01/19 19:17:58;;;;;;;16.00;9.40;;;;;6.50;100276.00;;;;10420454;28;20832;-74
2021/01/19 19:23:00;;;;;;;16.53;10.33;;;;;6.50;100261.00;;;;10418079;28;20218;-74
2021/01/19 19:28:04;;;;;;;11.87;8.07;;;;;6.40;100253.00;;;;10444161;28;20202;-74
2021/01/19 19:33:05;;;;;;;15.93;9.60;;;;;6.40;100244.00;;;;10438143;28;20704;-74
2021/01/19 19:38:07;;;;;;;14.43;9.30;;;;;6.40;100232.00;;;;10438175;28;20237;-75
2021/01/19 19:43:13;;;;;;;9.10;6.70;;;;;6.40;100227.00;;;;10431723;28;20752;-74
2021/01/19 19:48:14;;;;;;;13.50;8.10;;;;;6.40;100235.00;;;;10411014;28;20226;-74
2021/01/19 19:53:16;;;;;;;13.70;7.87;;;;;6.40;100228.00;;;;10392540;28;20248;-74
2021/01/19 19:58:17;;;;;;;11.33;7.53;;;;;6.40;100225.00;;;;10410604;28;20240;-74
2021/01/19 20:03:20;;;;;;;15.10;8.37;;;;;6.50;100213.00;;;;10435806;28;20220;-74
2021/01/19 20:08:22;;;;;;;12.50;8.13;;;;;6.50;100196.00;;;;10442298;28;20195;-74
2021/01/19 20:13:24;;;;;;;16.40;8.53;;;;;6.50;100193.00;;;;10440380;28;20186;-74
2021/01/19 20:18:25;;;;;;;14.10;9.20;;;;;6.50;100183.00;;;;10439500;28;20264;-75
2021/01/19 20:23:29;;;;;;;13.40;7.17;;;;;6.50;100175.00;;;;10455166;28;20249;-75
2021/01/19 20:28:30;;;;;;;13.40;8.73;;;;;6.50;100172.00;;;;10439788;28;20191;-75
2021/01/19 20:33:32;;;;;;;12.13;7.60;;;;;6.60;100162.00;;;;10441529;28;20178;-74
2021/01/19 20:38:33;;;;;;;13.27;9.13;;;;;6.60;100164.00;;;;10436710;28;20546;-75
2021/01/19 20:43:35;;;;;;;15.13;9.17;;;;;6.60;100167.00;;;;10429990;28;20752;-74
2021/01/19 20:48:37;;;;;;;15.87;9.97;;;;;6.70;100166.00;;;;10439424;28;20249;-75
2021/01/19 20:53:39;;;;;;;13.43;8.30;;;;;6.70;100142.00;;;;10448612;28;20236;-75
2021/01/19 20:58:40;;;;;;;9.50;8.27;;;;;6.70;100140.00;;;;10453591;28;20194;-75
2021/01/19 21:03:43;;;;;;;15.13;9.43;;;;;6.70;100125.00;;;;10419987;28;20273;-75
2021/01/19 21:08:45;;;;;;;15.70;10.13;;;;;6.80;100124.00;;;;10435989;28;20653;-75
2021/01/19 21:13:48;;;;;;;15.57;7.60;;;;;6.80;100120.00;;;;10422548;28;20249;-75
2021/01/19 21:18:51;;;;;;;14.07;9.27;;;;;6.80;100109.00;;;;10451217;28;20203;-75
2021/01/19 21:23:52;;;;;;;12.90;8.87;;;;;6.80;100106.00;;;;10452551;28;20190;-75
2021/01/19 21:28:54;;;;;;;9.03;7.37;;;;;6.80;100104.00;;;;10416711;28;20201;-75
2021/01/19 21:33:55;;;;;;;13.90;8.30;;;;;6.80;100095.00;;;;10454140;28;20219;-75
2021/01/19 21:38:58;;;;;;;13.50;8.63;;;;;6.80;100090.00;;;;10428367;28;20191;-75
2021/01/19 21:43:59;;;;;;;16.33;8.33;;;;;6.80;100090.00;;;;10406776;28;20230;-75
2021/01/19 21:49:03;;;;;;;15.63;9.03;;;;;6.70;100064.00;;;;10448001;28;20209;-75
2021/01/19 21:54:04;;;;;;;15.13;8.43;;;;;6.60;100052.00;;;;10442269;28;20252;-75
2021/01/19 21:59:06;;;;;;;13.07;7.27;;;;;6.40;100052.00;;;;10420769;28;20200;-75
2021/01/19 22:04:08;;;;;;;16.00;8.37;;;;;6.40;100037.00;;;;10412082;28;20210;-75
2021/01/19 22:09:09;;;;;;;10.43;7.20;;;;;6.40;100027.00;;;;10427991;28;20190;-75
2021/01/19 22:14:11;;;;;;;12.47;7.43;;;;;6.30;100012.00;;;;10422599;28;20699;-75
2021/01/19 22:19:12;;;;;;;8.33;5.77;;;;;6.30;100016.00;;;;10444220;28;20600;-75
2021/01/19 22:24:14;;;;;;;11.53;7.50;;;;;6.40;100013.00;;;;10432669;28;20186;-75
2021/01/19 22:29:15;;;;;;;11.70;7.10;;;;;6.40;99995.00;;;;10426293;28;20199;-75
2021/01/19 22:34:16;;;;;;;9.67;6.90;;;;;6.30;99993.00;;;;10418053;28;20198;-75
2021/01/19 22:39:18;;;;;;;10.37;6.40;;;;;6.20;99999.00;;;;10440568;28;20669;-75
2021/01/19 22:44:19;;;;;;;11.57;6.10;;;;;6.30;99994.00;;;;10426235;28;20226;-75
2021/01/19 22:49:21;;;;;;;14.03;6.93;;;;;6.30;99975.00;;;;10399373;28;20205;-75
2021/01/19 22:54:22;;;;;;;15.13;7.13;;;;;6.20;99977.00;;;;10383955;28;20642;-75
2021/01/19 22:59:23;;;;;;;10.20;6.40;;;;;6.20;99962.00;;;;10399796;28;20206;-75
2021/01/19 23:04:25;;;;;;;8.93;5.27;;;;;6.10;99957.00;;;;10415333;28;20237;-75
2021/01/19 23:09:26;;;;;;;11.50;6.27;;;;;6.00;99946.00;;;;10399448;28;20195;-75
2021/01/19 23:14:27;;;;;;;10.17;6.07;;;;;6.00;99951.00;;;;10414525;28;20202;-75
2021/01/19 23:19:29;;;;;;;11.87;5.97;;;;;6.00;99942.00;;;;10439365;28;20206;-75
2021/01/19 23:24:30;;;;;;;7.63;5.40;;;;;6.10;99941.00;;;;10456665;28;20538;-75
2021/01/19 23:29:32;;;;;;;9.30;6.40;;;;;6.10;99932.00;;;;10438879;28;20227;-75
2021/01/19 23:34:34;;;;;;;9.80;5.30;;;;;6.20;99927.00;;;;10405989;28;20194;-75
2021/01/19 23:39:36;;;;;;;9.73;6.37;;;;;6.10;99910.00;;;;10455672;28;20214;-75
2021/01/19 23:44:37;;;;;;;13.13;5.80;;;;;6.30;99905.00;;;;10422014;28;20979;-75
2021/01/19 23:49:39;;;;;;;8.43;4.90;;;;;6.30;99910.00;;;;10438197;28;20263;-75
2021/01/19 23:54:40;;;;;;;10.03;6.07;;;;;6.40;99914.00;;;;10438503;28;20197;-75
2021/01/19 23:59:42;;;;;;;11.53;5.50;;;;;6.40;99901.00;;;;10405193;28;20305;-75
